createdAt,value
2017-08-11T15:32:15.424Z,67108860
2017-08-11T15:42:32.765Z,67108860
2017-08-11T15:52:49.183Z,67108860
2017-08-11T16:03:05.445Z,67108860
2017-08-11T16:12:35.352Z,67108860
2017-08-11T16:16:30.114Z,67108860
2017-08-11T16:26:45.359Z,67108860
2017-08-11T16:31:48.972Z,67108860
2017-08-11T16:37:04.437Z,67108860
2017-08-11T16:47:20.061Z,67108860
2017-08-11T16:57:35.316Z,67108860
2017-08-11T17:07:51.428Z,67108860
2017-08-11T17:18:09.742Z,67108860
2017-08-11T17:23:18.834Z,67108860
2017-08-11T17:27:05.446Z,67108860
2017-08-11T17:58:35.582Z,67108860
2017-08-11T18:00:45.494Z,67108860
2017-08-11T18:01:57.256Z,67108860
2017-08-11T18:04:28.212Z,67108860
2017-08-11T18:05:43.326Z,67108860
2017-08-11T18:08:55.845Z,67108860
2017-08-11T18:10:08.555Z,67108860
2017-08-11T18:11:22.420Z,67108860
2017-08-11T18:12:33.954Z,67108860
2017-08-11T18:13:45.350Z,67108860
2017-08-11T18:14:58.783Z,67108860
2017-08-11T18:16:13.075Z,239544
2017-08-11T18:17:24.644Z,239544
2017-08-11T18:18:35.974Z,239544
2017-08-11T18:21:22.178Z,312
2017-08-11T18:22:36.159Z,296
2017-08-11T18:23:51.312Z,67108860
2017-08-11T18:39:48.833Z,2020
2017-08-11T18:42:19.328Z,2080
2017-08-11T18:43:33.529Z,2120
2017-08-11T18:44:46.416Z,2144
2017-08-11T18:47:20.997Z,2068
2017-08-11T18:49:50.443Z,2080
2017-08-11T18:51:04.618Z,2084
2017-08-11T18:52:17.685Z,2068
2017-08-11T18:53:31.823Z,460
2017-08-11T18:58:23.098Z,67108860
2017-08-11T19:00:22.496Z,67108860
2017-08-11T19:01:28.355Z,608
2017-08-11T19:03:57.571Z,660
2017-08-11T19:06:32.049Z,620
2017-08-11T19:07:47.272Z,660
2017-08-11T19:09:00.577Z,628
2017-08-11T19:11:30.235Z,628
2017-08-11T19:14:00.931Z,636
2017-08-11T19:16:33.081Z,616
2017-08-11T19:17:45.959Z,612
2017-08-11T19:18:58.880Z,616
2017-08-11T19:20:11.629Z,620
2017-08-11T19:21:24.132Z,640
2017-08-11T19:22:36.898Z,620
2017-08-11T19:23:49.536Z,624
2017-08-11T19:25:02.996Z,636
2017-08-11T19:26:16.743Z,340
2017-08-11T19:27:29.111Z,0
2017-08-11T19:28:41.302Z,0
2017-08-11T19:29:53.849Z,0
2017-08-11T19:31:06.200Z,0
2017-08-11T19:32:18.729Z,0
2017-08-11T19:33:31.143Z,0
2017-08-11T19:34:43.542Z,0
2017-08-11T19:35:59.318Z,0
2017-08-11T19:37:11.486Z,0
2017-08-11T19:38:23.649Z,0
2017-08-11T19:39:35.958Z,0
2017-08-11T19:40:48.199Z,0
2017-08-11T19:42:00.738Z,0
2017-08-11T19:43:13.176Z,0
2017-08-11T19:44:25.613Z,0
2017-08-11T19:45:42.108Z,0
2017-08-11T19:46:54.587Z,0
2017-08-11T19:48:07.004Z,0
2017-08-11T19:49:19.414Z,0
2017-08-11T19:50:31.837Z,0
2017-08-11T19:51:44.024Z,0
2017-08-11T19:52:56.565Z,0
2017-08-11T19:54:09.009Z,0
2017-08-11T19:55:24.435Z,0
2017-08-11T19:56:36.712Z,0
2017-08-11T19:57:49.146Z,0
2017-08-11T19:59:01.475Z,0
2017-08-11T20:00:13.619Z,0
2017-08-11T20:01:26.250Z,0
2017-08-11T20:02:39.231Z,0
2017-08-11T20:03:52.003Z,0
2017-08-11T20:05:04.505Z,0
2017-08-11T20:06:17.349Z,0
2017-08-11T20:07:30.127Z,0
2017-08-11T20:08:42.733Z,0
2017-08-11T20:09:55.271Z,0
2017-08-11T20:11:07.736Z,0
2017-08-11T20:12:20.110Z,0
2017-08-11T20:13:32.783Z,0
2017-08-11T20:14:45.367Z,0
2017-08-11T20:16:01.875Z,0
2017-08-11T20:17:14.663Z,0
2017-08-11T20:18:27.440Z,0
2017-08-11T20:19:40.340Z,0
2017-08-11T20:20:52.989Z,0
2017-08-11T20:22:05.498Z,0
2017-08-11T20:23:18.049Z,0
2017-08-11T20:24:30.538Z,0
2017-08-11T20:25:45.926Z,0
2017-08-11T20:26:58.605Z,0
2017-08-11T20:28:11.039Z,0
2017-08-11T20:29:23.590Z,0
2017-08-11T20:30:35.738Z,0
2017-08-11T20:31:48.051Z,0
2017-08-11T20:33:00.602Z,0
2017-08-11T20:34:13.003Z,0
2017-08-11T20:35:28.488Z,0
2017-08-11T20:36:41.432Z,0
2017-08-11T20:37:53.875Z,0
2017-08-11T20:39:06.266Z,0
2017-08-11T20:40:18.789Z,0
2017-08-11T20:41:31.283Z,0
2017-08-11T20:42:43.918Z,0
2017-08-11T20:43:56.606Z,0
2017-08-11T20:45:12.802Z,0
2017-08-11T20:46:25.341Z,0
2017-08-11T20:47:37.606Z,0
2017-08-11T20:48:50.101Z,0
2017-08-11T20:50:02.453Z,0
2017-08-11T20:51:14.683Z,0
2017-08-11T20:52:27.162Z,0
2017-08-11T20:54:07.454Z,0
2017-08-11T20:55:23.891Z,0
2017-08-11T20:56:36.324Z,0
2017-08-11T20:57:48.673Z,0
2017-08-11T20:59:01.178Z,0
2017-08-11T21:00:13.590Z,0
2017-08-11T21:01:26.008Z,0
2017-08-11T21:02:38.439Z,0
2017-08-11T21:03:51.047Z,0
2017-08-11T21:05:03.574Z,0
2017-08-11T21:06:16.253Z,0
2017-08-11T21:07:28.680Z,0
2017-08-11T21:08:41.223Z,0
2017-08-11T21:09:53.575Z,0
2017-08-11T21:11:05.884Z,0
2017-08-11T21:12:18.608Z,0
2017-08-11T21:13:31.084Z,0
2017-08-11T21:14:43.636Z,0
2017-08-11T21:16:00.199Z,0
2017-08-11T21:17:12.479Z,0
2017-08-11T21:18:24.952Z,0
2017-08-11T21:19:37.323Z,0
2017-08-11T21:20:49.584Z,0
2017-08-11T21:22:01.784Z,0
2017-08-11T21:23:14.196Z,0
2017-08-11T21:24:26.450Z,0
2017-08-11T21:25:42.285Z,8
2017-08-11T21:26:54.752Z,0
2017-08-11T21:28:06.998Z,0
2017-08-11T21:29:19.649Z,0
2017-08-11T21:30:31.911Z,0
2017-08-11T21:31:44.325Z,0
2017-08-11T21:32:56.823Z,0
2017-08-11T21:34:09.168Z,0
2017-08-11T21:35:24.632Z,0
2017-08-11T21:36:37.040Z,0
2017-08-11T21:37:49.514Z,0
2017-08-11T21:39:02.027Z,0
2017-08-11T21:40:14.380Z,0
2017-08-11T21:41:26.857Z,0
2017-08-11T21:42:39.121Z,0
2017-08-11T21:43:51.627Z,0
2017-08-11T21:45:03.928Z,0
2017-08-11T21:46:16.070Z,0
2017-08-11T21:47:28.434Z,0
2017-08-11T21:48:40.815Z,0
2017-08-11T21:49:53.071Z,0
2017-08-11T21:51:05.576Z,0
2017-08-11T21:52:17.743Z,0
2017-08-11T21:53:30.032Z,0
2017-08-11T21:54:42.421Z,0
2017-08-11T21:55:58.683Z,0
2017-08-11T21:57:11.291Z,0
2017-08-11T21:58:23.502Z,0
2017-08-11T21:59:35.714Z,0
2017-08-11T22:00:48.096Z,0
2017-08-11T22:02:00.340Z,0
2017-08-11T22:03:12.725Z,0
2017-08-11T22:04:24.907Z,0
2017-08-11T22:05:41.284Z,0
2017-08-11T22:06:53.884Z,0
2017-08-11T22:08:06.369Z,0
2017-08-11T22:09:18.713Z,0
2017-08-11T22:10:31.095Z,0
2017-08-11T22:11:43.459Z,0
2017-08-11T22:12:55.870Z,0
2017-08-11T22:14:08.295Z,0
2017-08-11T22:15:24.338Z,0
2017-08-11T22:16:36.693Z,0
2017-08-11T22:17:48.933Z,0
2017-08-11T22:19:01.230Z,0
2017-08-11T22:20:13.556Z,0
2017-08-11T22:21:25.957Z,0
2017-08-11T22:22:38.343Z,0
2017-08-11T22:23:51.026Z,0
2017-08-11T22:25:03.290Z,0
2017-08-11T22:26:15.850Z,0
2017-08-11T22:27:27.997Z,0
2017-08-11T22:28:40.507Z,0
2017-08-11T22:29:52.753Z,0
2017-08-11T22:31:05.227Z,0
2017-08-11T22:32:17.457Z,0
2017-08-11T22:33:29.702Z,0
2017-08-11T22:34:42.037Z,0
2017-08-11T22:35:58.088Z,0
2017-08-11T22:37:10.522Z,0
2017-08-11T22:38:22.942Z,0
2017-08-11T22:39:35.361Z,0
2017-08-11T22:40:47.818Z,0
2017-08-11T22:42:00.226Z,0
2017-08-11T22:43:12.655Z,0
2017-08-11T22:44:25.148Z,0
2017-08-11T22:46:03.161Z,0
2017-08-11T22:47:15.634Z,0
2017-08-11T22:48:28.258Z,0
2017-08-11T22:49:40.549Z,0
2017-08-11T22:50:52.806Z,0
2017-08-11T22:52:05.356Z,0
2017-08-11T22:53:17.832Z,0
2017-08-11T22:54:30.060Z,0
2017-08-11T22:55:45.681Z,0
2017-08-11T22:56:58.009Z,0
2017-08-11T22:58:10.277Z,0
2017-08-11T22:59:22.797Z,0
2017-08-11T23:00:34.985Z,0
2017-08-11T23:01:47.277Z,0
2017-08-11T23:02:59.656Z,0
2017-08-11T23:04:11.847Z,0
2017-08-11T23:05:28.323Z,0
2017-08-11T23:06:40.790Z,0
2017-08-11T23:07:53.346Z,0
2017-08-11T23:09:05.764Z,0
2017-08-11T23:10:18.203Z,0
2017-08-11T23:11:30.461Z,0
2017-08-11T23:12:42.856Z,0
2017-08-11T23:13:55.158Z,0
2017-08-11T23:15:07.622Z,0
2017-08-11T23:16:20.075Z,0
2017-08-11T23:17:32.475Z,0
2017-08-11T23:18:44.686Z,0
2017-08-11T23:19:57.079Z,0
2017-08-11T23:21:09.540Z,0
2017-08-11T23:22:21.941Z,0
2017-08-11T23:23:34.426Z,0
2017-08-11T23:24:47.000Z,0
2017-08-11T23:26:02.490Z,0
2017-08-11T23:27:14.888Z,0
2017-08-11T23:28:27.123Z,0
2017-08-11T23:29:39.499Z,0
2017-08-11T23:30:51.795Z,0
2017-08-11T23:32:04.296Z,0
2017-08-11T23:33:16.504Z,0
2017-08-11T23:34:29.110Z,0
2017-08-11T23:36:06.665Z,0
2017-08-11T23:37:19.107Z,0
2017-08-11T23:38:31.720Z,0
2017-08-11T23:39:44.249Z,0
2017-08-11T23:40:56.538Z,0
2017-08-11T23:42:08.934Z,0
2017-08-11T23:43:21.278Z,0
2017-08-11T23:44:33.651Z,0
2017-08-11T23:45:49.142Z,0
2017-08-11T23:47:01.622Z,0
2017-08-11T23:48:42.300Z,0
2017-08-11T23:49:54.547Z,0
2017-08-11T23:51:06.718Z,0
2017-08-11T23:52:19.231Z,0
2017-08-11T23:53:31.650Z,0
2017-08-11T23:54:44.066Z,0
2017-08-11T23:56:00.199Z,0
2017-08-11T23:57:12.654Z,0
2017-08-11T23:58:24.923Z,0
2017-08-11T23:59:37.408Z,0
